Time;durP1;ratioP1;P1;durP2;ratioP2;P2;SDS_P1;SDS_P2;PMS_P1;PMS_P2;Temp;Humidity;BMP_temperature;BMP_pressure;BME280_temperature;BME280_humidity;BME280_pressure;Samples;Min_cycle;Max_cycle;Signal;HPM_P1;HPM_P2
2022/10/25 00:01:46;;;;;;;18.92;6.13;;;;;;;;;;5027535;28;20346;-71
2022/10/25 00:04:12;;;;;;;8.55;5.57;;;;;;;;;;5015922;28;20014;-70
2022/10/25 00:06:38;;;;;;;14.35;6.07;;;;;;;;;;5029137;28;20384;-70
2022/10/25 00:09:05;;;;;;;15.18;6.68;;;;;;;;;;5028656;28;20099;-70
2022/10/25 00:11:31;;;;;;;8.50;5.82;;;;;;;;;;5028653;28;20215;-70
2022/10/25 00:13:59;;;;;;;11.05;6.03;;;;;;;;;;5028536;28;20018;-70
2022/10/25 00:16:27;;;;;;;15.65;6.13;;;;;;;;;;5027614;28;20036;-70
2022/10/25 00:18:53;;;;;;;12.05;6.13;;;;;;;;;;5028784;28;20105;-69
2022/10/25 00:21:20;;;;;;;13.38;5.97;;;;;;;;;;5028758;28;20025;-70
2022/10/25 00:23:46;;;;;;;13.27;5.53;;;;;;;;;;5028676;28;20060;-70
2022/10/25 00:26:13;;;;;;;9.27;4.57;;;;;;;;;;5028300;28;20076;-70
2022/10/25 00:28:39;;;;;;;10.88;5.15;;;;;;;;;;5028494;28;20429;-70
2022/10/25 00:31:07;;;;;;;10.57;4.60;;;;;;;;;;5026761;28;20029;-71
2022/10/25 00:33:33;;;;;;;13.05;5.10;;;;;;;;;;5028821;28;20025;-71
2022/10/25 00:36:04;;;;;;;22.70;4.80;;;;;;;;;;5028113;28;20155;-71
2022/10/25 00:38:30;;;;;;;8.55;4.63;;;;;;;;;;5028419;28;20079;-72
2022/10/25 00:40:56;;;;;;;12.48;5.22;;;;;;;;;;5028228;28;20021;-71
2022/10/25 00:43:38;;;;;;;13.65;6.05;;;;;;;;;;5028455;28;20473;-71
2022/10/25 00:46:11;;;;;;;14.30;5.45;;;;;;;;;;5026599;28;20030;-71
2022/10/25 00:48:38;;;;;;;12.98;5.72;;;;;;;;;;5028260;28;20030;-71
2022/10/25 00:51:04;;;;;;;11.15;4.88;;;;;;;;;;5028063;28;20044;-73
2022/10/25 00:53:33;;;;;;;10.73;4.97;;;;;;;;;;5028462;28;20112;-71
2022/10/25 00:56:12;;;;;;;11.50;5.15;;;;;;;;;;5028098;28;20041;-71
2022/10/25 00:58:39;;;;;;;9.15;5.40;;;;;;;;;;5028124;28;20014;-71
2022/10/25 01:01:07;;;;;;;12.18;4.72;;;;;;;;;;5026628;28;20099;-71
2022/10/25 01:03:34;;;;;;;10.88;5.25;;;;;;;;;;5013881;28;20029;-71
2022/10/25 01:06:01;;;;;;;11.73;5.60;;;;;;;;;;5026650;28;20030;-71
2022/10/25 01:08:27;;;;;;;11.90;4.82;;;;;;;;;;5026455;28;20108;-71
2022/10/25 01:10:53;;;;;;;7.53;4.80;;;;;;;;;;5027830;28;20029;-73
2022/10/25 01:13:20;;;;;;;9.88;4.38;;;;;;;;;;5026593;28;20021;-72
2022/10/25 01:15:51;;;;;;;7.35;4.30;;;;;;;;;;5027666;28;20071;-72
2022/10/25 01:18:22;;;;;;;11.27;4.72;;;;;;;;;;5027685;28;20218;-71
2022/10/25 01:20:57;;;;;;;12.87;5.30;;;;;;;;;;5027588;28;20022;-71
2022/10/25 01:23:44;;;;;;;12.00;5.50;;;;;;;;;;5027611;28;20108;-71
2022/10/25 01:26:20;;;;;;;7.90;4.68;;;;;;;;;;5025869;28;20025;-72
2022/10/25 01:28:58;;;;;;;11.93;5.20;;;;;;;;;;5026029;28;20057;-71
2022/10/25 01:31:24;;;;;;;11.55;4.93;;;;;;;;;;5014526;28;20099;-71
2022/10/25 01:33:53;;;;;;;9.60;5.20;;;;;;;;;;5024643;28;20025;-70
2022/10/25 01:36:26;;;;;;;11.20;5.05;;;;;;;;;;5025787;28;20455;-71
2022/10/25 01:39:02;;;;;;;13.10;5.25;;;;;;;;;;5027340;28;20108;-71
2022/10/25 01:41:34;;;;;;;11.50;5.03;;;;;;;;;;5027222;28;20101;-71
2022/10/25 01:44:00;;;;;;;10.02;4.70;;;;;;;;;;5027582;28;20028;-71
2022/10/25 01:46:29;;;;;;;14.52;5.93;;;;;;;;;;5027057;28;20029;-71
2022/10/25 01:49:00;;;;;;;13.07;4.80;;;;;;;;;;5025599;28;20626;-71
2022/10/25 01:51:30;;;;;;;13.57;5.20;;;;;;;;;;5023937;28;20441;-70
2022/10/25 01:53:56;;;;;;;12.45;5.00;;;;;;;;;;5010674;28;20052;-70
2022/10/25 01:56:33;;;;;;;10.00;4.57;;;;;;;;;;5010685;28;20041;-71
2022/10/25 01:59:14;;;;;;;12.50;4.85;;;;;;;;;;5025127;28;20022;-71
2022/10/25 02:01:53;;;;;;;9.52;5.38;;;;;;;;;;5012691;28;20029;-71
2022/10/25 02:04:19;;;;;;;10.07;4.78;;;;;;;;;;5026936;28;20033;-71
2022/10/25 02:06:53;;;;;;;10.65;4.75;;;;;;;;;;5026411;28;20029;-72
2022/10/25 02:09:38;;;;;;;8.27;5.07;;;;;;;;;;5015226;28;20037;-71
2022/10/25 02:12:07;;;;;;;11.00;4.63;;;;;;;;;;5013372;28;20028;-71
2022/10/25 02:14:38;;;;;;;11.45;4.85;;;;;;;;;;5025162;28;20030;-71
2022/10/25 02:17:33;;;;;;;12.93;5.35;;;;;;;;;;5026663;28;20025;-71
2022/10/25 02:20:01;;;;;;;11.02;5.30;;;;;;;;;;5029925;28;20029;-71
2022/10/25 02:22:30;;;;;;;9.25;5.28;;;;;;;;;;5026660;28;20527;-71
2022/10/25 02:24:57;;;;;;;12.23;5.60;;;;;;;;;;5026543;28;20036;-71
2022/10/25 02:27:24;;;;;;;15.25;5.90;;;;;;;;;;5024426;28;20029;-71
2022/10/25 02:29:52;;;;;;;10.38;4.90;;;;;;;;;;5017355;28;20107;-71
2022/10/25 02:32:18;;;;;;;8.93;5.07;;;;;;;;;;5026471;28;20467;-71
2022/10/25 02:34:47;;;;;;;11.32;4.68;;;;;;;;;;5026339;28;20033;-72
2022/10/25 02:37:13;;;;;;;12.52;4.65;;;;;;;;;;5026459;28;20163;-71
2022/10/25 02:39:39;;;;;;;9.07;4.55;;;;;;;;;;5026645;28;20025;-71
2022/10/25 02:42:05;;;;;;;9.38;5.00;;;;;;;;;;5025171;28;20555;-71
2022/10/25 02:44:31;;;;;;;10.60;4.70;;;;;;;;;;5026865;28;20033;-71
2022/10/25 02:46:58;;;;;;;6.68;3.83;;;;;;;;;;5026879;28;20022;-71
2022/10/25 02:49:24;;;;;;;7.22;4.13;;;;;;;;;;5024994;28;20455;-71
2022/10/25 02:51:50;;;;;;;8.57;3.80;;;;;;;;;;5024983;28;20551;-73
2022/10/25 02:54:17;;;;;;;8.65;4.28;;;;;;;;;;5026150;28;20040;-71
2022/10/25 02:56:43;;;;;;;7.47;3.65;;;;;;;;;;5026004;28;20099;-71
2022/10/25 02:59:11;;;;;;;10.00;3.78;;;;;;;;;;5025618;28;20071;-71
2022/10/25 03:01:38;;;;;;;7.82;3.75;;;;;;;;;;5013215;28;20108;-71
2022/10/25 03:04:04;;;;;;;8.00;3.85;;;;;;;;;;5023852;28;20950;-71
2022/10/25 03:06:30;;;;;;;10.63;3.55;;;;;;;;;;5026374;28;20566;-71
2022/10/25 03:08:56;;;;;;;6.47;3.25;;;;;;;;;;5026128;28;20362;-71
2022/10/25 03:11:22;;;;;;;10.95;3.80;;;;;;;;;;5026336;28;20018;-71
2022/10/25 03:13:48;;;;;;;9.13;4.03;;;;;;;;;;5023528;28;20389;-72
2022/10/25 03:16:15;;;;;;;8.93;3.58;;;;;;;;;;5026140;28;20037;-71
2022/10/25 03:18:41;;;;;;;9.93;3.78;;;;;;;;;;5021579;28;20029;-72
2022/10/25 03:21:07;;;;;;;6.38;3.22;;;;;;;;;;5023777;28;20080;-72
2022/10/25 03:23:34;;;;;;;10.65;3.65;;;;;;;;;;5023220;28;20040;-71
2022/10/25 03:26:00;;;;;;;7.38;3.30;;;;;;;;;;5023743;28;20461;-71
2022/10/25 03:28:27;;;;;;;6.57;3.53;;;;;;;;;;5024715;28;20132;-71
2022/10/25 03:30:54;;;;;;;8.00;3.22;;;;;;;;;;5023192;28;20511;-71
2022/10/25 03:33:20;;;;;;;10.73;3.15;;;;;;;;;;5023212;28;20021;-71
2022/10/25 03:35:49;;;;;;;7.57;3.35;;;;;;;;;;5024838;28;20536;-71
2022/10/25 03:38:15;;;;;;;8.90;3.20;;;;;;;;;;5023006;28;20200;-71
2022/10/25 03:40:41;;;;;;;7.90;3.60;;;;;;;;;;5023264;28;20014;-72
2022/10/25 03:43:08;;;;;;;7.65;3.22;;;;;;;;;;5024479;28;20500;-71
2022/10/25 03:45:34;;;;;;;7.40;3.45;;;;;;;;;;5022991;28;20013;-71
2022/10/25 03:48:00;;;;;;;6.45;3.22;;;;;;;;;;5024285;28;20026;-71
2022/10/25 03:50:26;;;;;;;10.13;3.00;;;;;;;;;;5024312;28;20025;-72
2022/10/25 03:52:52;;;;;;;9.80;3.20;;;;;;;;;;5022851;28;20025;-71
2022/10/25 03:55:18;;;;;;;6.30;3.40;;;;;;;;;;5024172;28;20041;-71
2022/10/25 03:57:45;;;;;;;5.88;2.75;;;;;;;;;;5024348;28;20611;-72
2022/10/25 04:00:11;;;;;;;11.32;3.10;;;;;;;;;;5015319;28;20036;-72
2022/10/25 04:02:37;;;;;;;7.30;3.38;;;;;;;;;;5017895;28;20027;-71
2022/10/25 04:05:04;;;;;;;14.98;4.10;;;;;;;;;;5024241;28;20021;-72
2022/10/25 04:07:30;;;;;;;8.18;3.63;;;;;;;;;;5024023;28;20026;-71
2022/10/25 04:09:56;;;;;;;8.52;4.05;;;;;;;;;;5023954;28;20017;-71
2022/10/25 04:12:23;;;;;;;10.32;3.70;;;;;;;;;;5024197;28;20030;-71
2022/10/25 04:14:49;;;;;;;8.70;3.65;;;;;;;;;;5020897;28;20359;-71
2022/10/25 04:17:15;;;;;;;7.68;3.40;;;;;;;;;;5023861;28;20056;-70
2022/10/25 04:19:41;;;;;;;13.05;4.47;;;;;;;;;;5023714;28;20072;-71
2022/10/25 04:22:13;;;;;;;10.45;3.78;;;;;;;;;;5023775;28;20026;-71
2022/10/25 04:24:39;;;;;;;10.13;3.75;;;;;;;;;;5021911;28;20041;-70
2022/10/25 04:27:05;;;;;;;5.28;3.40;;;;;;;;;;5023485;28;20017;-70
2022/10/25 04:29:31;;;;;;;11.02;3.72;;;;;;;;;;5022375;28;20029;-70
2022/10/25 04:31:57;;;;;;;9.18;3.40;;;;;;;;;;5023314;28;20013;-71
2022/10/25 04:34:23;;;;;;;8.82;3.85;;;;;;;;;;5023282;28;20053;-71
2022/10/25 04:36:50;;;;;;;7.03;3.38;;;;;;;;;;5020222;28;20041;-71
2022/10/25 04:39:16;;;;;;;7.55;3.45;;;;;;;;;;5023531;28;20083;-71
2022/10/25 04:41:42;;;;;;;12.43;3.55;;;;;;;;;;5023071;28;20040;-71
2022/10/25 04:44:08;;;;;;;8.90;3.63;;;;;;;;;;5023820;28;20025;-71
2022/10/25 04:46:34;;;;;;;11.13;3.90;;;;;;;;;;5021781;28;20030;-71
2022/10/25 04:49:01;;;;;;;8.48;3.75;;;;;;;;;;5023216;28;20025;-71
2022/10/25 04:51:27;;;;;;;6.38;3.75;;;;;;;;;;5023516;28;20102;-71
2022/10/25 04:53:54;;;;;;;9.90;4.57;;;;;;;;;;5023472;28;20108;-71
2022/10/25 04:56:20;;;;;;;11.65;3.88;;;;;;;;;;5022875;28;20404;-71
2022/10/25 04:58:46;;;;;;;9.55;3.65;;;;;;;;;;5022949;28;20037;-72
2022/10/25 05:01:14;;;;;;;12.70;3.45;;;;;;;;;;5007670;28;20061;-71
2022/10/25 05:03:40;;;;;;;10.63;4.10;;;;;;;;;;5023421;28;20443;-71
2022/10/25 05:06:11;;;;;;;11.82;3.85;;;;;;;;;;5022809;28;20033;-71
2022/10/25 05:08:41;;;;;;;11.25;4.18;;;;;;;;;;5022863;28;20088;-71
2022/10/25 05:11:08;;;;;;;9.30;3.75;;;;;;;;;;5021514;28;20474;-71
2022/10/25 05:13:35;;;;;;;8.38;3.78;;;;;;;;;;5023239;28;20033;-71
2022/10/25 05:16:01;;;;;;;9.68;3.58;;;;;;;;;;5022613;28;20076;-71
2022/10/25 05:18:27;;;;;;;7.60;3.60;;;;;;;;;;5022387;28;20014;-71
2022/10/25 05:20:54;;;;;;;8.77;3.80;;;;;;;;;;5021169;28;20111;-71
2022/10/25 05:23:20;;;;;;;8.23;3.53;;;;;;;;;;5022514;28;20029;-71
2022/10/25 05:25:47;;;;;;;10.30;4.03;;;;;;;;;;5023106;28;20037;-71
2022/10/25 05:28:13;;;;;;;6.13;3.20;;;;;;;;;;5022428;28;20088;-71
2022/10/25 05:30:40;;;;;;;6.78;3.35;;;;;;;;;;5022275;28;20037;-71
2022/10/25 05:33:07;;;;;;;7.72;4.13;;;;;;;;;;5007013;28;20101;-71
2022/10/25 05:35:33;;;;;;;10.27;3.95;;;;;;;;;;5002725;28;20050;-71
2022/10/25 05:37:59;;;;;;;9.07;3.70;;;;;;;;;;5034858;28;20025;-71
2022/10/25 05:40:25;;;;;;;7.07;3.25;;;;;;;;;;5000132;28;20055;-71
2022/10/25 05:42:52;;;;;;;9.23;3.85;;;;;;;;;;5002552;28;20501;-71
2022/10/25 05:45:18;;;;;;;11.05;3.33;;;;;;;;;;5000883;28;20026;-74
2022/10/25 05:47:44;;;;;;;10.68;3.72;;;;;;;;;;5002495;28;20097;-71
2022/10/25 05:50:11;;;;;;;6.15;3.78;;;;;;;;;;5002523;28;20072;-72
2022/10/25 05:52:41;;;;;;;10.13;3.67;;;;;;;;;;5002606;28;20116;-71
2022/10/25 05:55:07;;;;;;;7.65;3.53;;;;;;;;;;5032586;28;20063;-71
2022/10/25 05:57:33;;;;;;;8.68;4.40;;;;;;;;;;5001948;28;20113;-71
2022/10/25 06:00:00;;;;;;;7.38;3.67;;;;;;;;;;5002276;28;20025;-71
2022/10/25 06:02:26;;;;;;;5.95;3.65;;;;;;;;;;5015415;28;20033;-72
2022/10/25 06:04:52;;;;;;;7.82;4.43;;;;;;;;;;5022000;28;20029;-72
2022/10/25 06:07:18;;;;;;;7.07;4.20;;;;;;;;;;5020327;28;20108;-70
2022/10/25 06:09:44;;;;;;;7.38;4.05;;;;;;;;;;5021597;28;20025;-70
2022/10/25 06:12:10;;;;;;;13.05;4.35;;;;;;;;;;5021869;28;20025;-71
2022/10/25 06:14:36;;;;;;;7.05;4.25;;;;;;;;;;5022254;28;20358;-70
2022/10/25 06:17:02;;;;;;;7.82;3.85;;;;;;;;;;5021407;28;20033;-70
2022/10/25 06:19:29;;;;;;;9.88;4.20;;;;;;;;;;5020488;28;20051;-71
2022/10/25 06:21:55;;;;;;;6.32;3.65;;;;;;;;;;5021748;28;20028;-71
2022/10/25 06:24:21;;;;;;;7.50;3.78;;;;;;;;;;5021552;28;20017;-71
2022/10/25 06:26:48;;;;;;;8.82;4.45;;;;;;;;;;5021525;28;20045;-70
2022/10/25 06:29:14;;;;;;;9.95;4.43;;;;;;;;;;5021782;28;20117;-71
2022/10/25 06:31:41;;;;;;;11.65;4.82;;;;;;;;;;5019907;28;20021;-71
2022/10/25 06:34:08;;;;;;;7.40;4.25;;;;;;;;;;5021291;28;20279;-71
2022/10/25 06:36:34;;;;;;;8.55;4.60;;;;;;;;;;5021425;28;20501;-70
2022/10/25 06:39:00;;;;;;;11.32;4.90;;;;;;;;;;5021487;28;20018;-70
2022/10/25 06:41:27;;;;;;;8.85;4.60;;;;;;;;;;5021553;28;20083;-70
2022/10/25 06:43:54;;;;;;;9.05;4.63;;;;;;;;;;5021306;28;20339;-71
2022/10/25 06:46:22;;;;;;;11.15;5.32;;;;;;;;;;5019747;28;20109;-72
2022/10/25 06:48:49;;;;;;;7.93;4.57;;;;;;;;;;5021000;28;20208;-71
2022/10/25 06:51:15;;;;;;;6.78;4.60;;;;;;;;;;5022719;28;20025;-71
2022/10/25 06:53:41;;;;;;;11.98;4.82;;;;;;;;;;5025180;28;20022;-71
2022/10/25 06:56:08;;;;;;;8.63;4.65;;;;;;;;;;5025524;28;20413;-71
2022/10/25 06:58:35;;;;;;;11.02;4.57;;;;;;;;;;5024122;28;20643;-71
2022/10/25 07:01:06;;;;;;;10.25;4.35;;;;;;;;;;5015400;28;20021;-71
2022/10/25 07:03:35;;;;;;;9.55;4.97;;;;;;;;;;5005236;28;20022;-71
2022/10/25 07:06:04;;;;;;;10.88;4.97;;;;;;;;;;5005497;28;20095;-71
2022/10/25 07:08:31;;;;;;;9.93;4.72;;;;;;;;;;5004011;28;20026;-71
2022/10/25 07:10:57;;;;;;;8.73;4.80;;;;;;;;;;5003951;28;20284;-71
2022/10/25 07:13:23;;;;;;;10.02;5.45;;;;;;;;;;5005097;28;20026;-71
2022/10/25 07:15:50;;;;;;;13.00;5.40;;;;;;;;;;5003552;28;20277;-71
2022/10/25 07:18:16;;;;;;;10.82;5.03;;;;;;;;;;5005371;28;20022;-71
2022/10/25 07:20:47;;;;;;;11.82;5.38;;;;;;;;;;5012762;28;20029;-71
2022/10/25 07:23:16;;;;;;;12.52;5.13;;;;;;;;;;5015055;28;20422;-71
2022/10/25 07:25:43;;;;;;;7.90;4.90;;;;;;;;;;5014920;28;20022;-72
2022/10/25 07:28:11;;;;;;;10.40;4.75;;;;;;;;;;5037910;28;20512;-71
2022/10/25 07:30:37;;;;;;;8.05;4.32;;;;;;;;;;5020463;28;20025;-71
2022/10/25 07:33:03;;;;;;;8.75;3.83;;;;;;;;;;5011810;28;20030;-71
2022/10/25 07:35:29;;;;;;;11.70;3.90;;;;;;;;;;5009445;28;20436;-71
2022/10/25 07:37:55;;;;;;;14.45;4.63;;;;;;;;;;5016465;28;20133;-70
2022/10/25 07:40:21;;;;;;;8.05;4.38;;;;;;;;;;5008245;28;20133;-70
2022/10/25 07:42:48;;;;;;;9.38;4.50;;;;;;;;;;5017714;28;20600;-70
2022/10/25 07:45:15;;;;;;;14.05;5.05;;;;;;;;;;5009967;28;20612;-70
2022/10/25 07:47:41;;;;;;;7.10;4.07;;;;;;;;;;5018832;28;20036;-70
2022/10/25 07:50:07;;;;;;;8.75;4.15;;;;;;;;;;5009723;28;20546;-71
2022/10/25 07:52:33;;;;;;;8.85;3.58;;;;;;;;;;5021426;28;20033;-71
2022/10/25 07:54:59;;;;;;;8.93;3.85;;;;;;;;;;5012541;28;20543;-71
2022/10/25 07:57:25;;;;;;;11.48;3.90;;;;;;;;;;5008701;28;20518;-70
2022/10/25 07:59:51;;;;;;;9.57;4.20;;;;;;;;;;5004065;28;20032;-70
2022/10/25 08:02:18;;;;;;;6.40;3.67;;;;;;;;;;5016843;28;20033;-70
2022/10/25 08:04:44;;;;;;;8.30;3.53;;;;;;;;;;5023407;28;20029;-70
2022/10/25 08:07:10;;;;;;;8.23;4.00;;;;;;;;;;5023980;28;20599;-70
2022/10/25 08:09:36;;;;;;;7.55;3.92;;;;;;;;;;5011423;28;20033;-70
2022/10/25 08:12:03;;;;;;;10.75;4.45;;;;;;;;;;5004235;28;20018;-71
2022/10/25 08:14:29;;;;;;;9.85;4.43;;;;;;;;;;5004120;28;20026;-71
2022/10/25 08:16:55;;;;;;;18.60;7.50;;;;;;;;;;5004216;28;20531;-71
2022/10/25 08:19:21;;;;;;;16.75;8.00;;;;;;;;;;5004012;28;20036;-71
2022/10/25 08:21:47;;;;;;;15.73;8.32;;;;;;;;;;5002593;28;20105;-72
2022/10/25 08:24:13;;;;;;;10.32;7.13;;;;;;;;;;5005746;28;20030;-73
2022/10/25 08:26:40;;;;;;;16.60;7.10;;;;;;;;;;5036098;28;20026;-72
2022/10/25 08:29:06;;;;;;;10.38;5.18;;;;;;;;;;5003567;28;20059;-72
2022/10/25 08:31:32;;;;;;;13.30;6.15;;;;;;;;;;5004009;28;20036;-72
2022/10/25 08:33:58;;;;;;;15.75;7.15;;;;;;;;;;5003901;28;20445;-72
2022/10/25 08:36:25;;;;;;;14.93;7.60;;;;;;;;;;5001884;28;20038;-72
2022/10/25 08:38:51;;;;;;;15.90;7.38;;;;;;;;;;5003727;28;20010;-72
2022/10/25 08:41:20;;;;;;;16.70;7.40;;;;;;;;;;5002290;28;20633;-72
2022/10/25 08:44:04;;;;;;;16.30;6.28;;;;;;;;;;5003889;28;20072;-72
2022/10/25 08:46:37;;;;;;;13.00;6.25;;;;;;;;;;5002343;28;20026;-73
2022/10/25 08:49:16;;;;;;;16.45;6.25;;;;;;;;;;5002018;28;20091;-72
2022/10/25 08:51:44;;;;;;;11.90;6.47;;;;;;;;;;5001891;28;20033;-72
2022/10/25 08:54:30;;;;;;;16.48;6.70;;;;;;;;;;5007468;28;20490;-70
2022/10/25 08:57:26;;;;;;;19.50;7.80;;;;;;;;;;5022158;28;20034;-72
2022/10/25 08:59:56;;;;;;;14.07;7.53;;;;;;;;;;5006730;28;20041;-71
2022/10/25 09:02:28;;;;;;;12.57;6.07;;;;;;;;;;5007534;28;20029;-72
2022/10/25 09:04:55;;;;;;;15.30;7.53;;;;;;;;;;5003198;28;20022;-72
2022/10/25 09:07:43;;;;;;;16.40;7.05;;;;;;;;;;5002990;28;20017;-71
2022/10/25 09:10:26;;;;;;;13.55;8.13;;;;;;;;;;5003286;28;20040;-71
2022/10/25 09:12:52;;;;;;;16.65;8.23;;;;;;;;;;5003169;28;20014;-71
2022/10/25 09:15:30;;;;;;;17.20;8.43;;;;;;;;;;4999648;28;20505;-71
2022/10/25 09:17:57;;;;;;;15.60;9.13;;;;;;;;;;5002784;28;20025;-71
2022/10/25 09:20:36;;;;;;;15.70;8.63;;;;;;;;;;5003076;28;20022;-71
2022/10/25 09:23:10;;;;;;;14.70;9.27;;;;;;;;;;5001351;28;20021;-71
2022/10/25 09:25:41;;;;;;;19.60;9.50;;;;;;;;;;5003594;28;20018;-71
2022/10/25 09:28:30;;;;;;;19.60;10.75;;;;;;;;;;5002773;28;20026;-72
2022/10/25 09:30:56;;;;;;;21.00;9.77;;;;;;;;;;5003126;28;20022;-72
2022/10/25 09:33:27;;;;;;;20.70;9.77;;;;;;;;;;5000923;28;20029;-71
2022/10/25 09:35:54;;;;;;;15.65;8.57;;;;;;;;;;5002271;28;20810;-72
2022/10/25 09:38:35;;;;;;;15.82;9.15;;;;;;;;;;5034291;28;20048;-72
2022/10/25 09:41:03;;;;;;;19.13;8.50;;;;;;;;;;5001072;28;20033;-71
2022/10/25 09:43:36;;;;;;;14.68;7.80;;;;;;;;;;5002361;28;20033;-71
2022/10/25 09:46:05;;;;;;;14.95;9.02;;;;;;;;;;5011717;28;20377;-70
2022/10/25 09:49:04;;;;;;;17.60;8.32;;;;;;;;;;5018504;28;20116;-71
2022/10/25 09:51:30;;;;;;;14.32;7.10;;;;;;;;;;5017701;28;20032;-70
2022/10/25 09:53:56;;;;;;;15.18;7.05;;;;;;;;;;5017019;28;20034;-72
2022/10/25 09:56:22;;;;;;;19.30;8.13;;;;;;;;;;5020572;28;20104;-71
2022/10/25 09:58:49;;;;;;;19.20;7.80;;;;;;;;;;5016561;28;20026;-71
2022/10/25 10:01:25;;;;;;;17.05;6.95;;;;;;;;;;5006509;28;20030;-71
2022/10/25 10:03:52;;;;;;;18.50;7.18;;;;;;;;;;5015162;28;20493;-71
2022/10/25 10:06:18;;;;;;;15.63;6.55;;;;;;;;;;5008214;28;20030;-71
2022/10/25 10:08:48;;;;;;;17.35;7.50;;;;;;;;;;5001969;28;20021;-71
2022/10/25 10:11:16;;;;;;;11.70;5.88;;;;;;;;;;5032223;28;20029;-71
2022/10/25 10:13:46;;;;;;;14.73;7.22;;;;;;;;;;5001880;28;20026;-71
2022/10/25 10:16:31;;;;;;;16.38;6.82;;;;;;;;;;5001630;28;20102;-71
2022/10/25 10:19:12;;;;;;;14.35;6.75;;;;;;;;;;5001222;28;20026;-71
2022/10/25 10:21:46;;;;;;;13.75;7.07;;;;;;;;;;5000491;28;20695;-73
2022/10/25 10:24:42;;;;;;;13.68;7.00;;;;;;;;;;5009023;28;20621;-71
2022/10/25 10:27:09;;;;;;;13.07;7.30;;;;;;;;;;5005834;28;20033;-71
2022/10/25 10:29:37;;;;;;;13.90;7.50;;;;;;;;;;5011860;28;20025;-71
2022/10/25 10:32:21;;;;;;;21.95;7.90;;;;;;;;;;5013021;28;20025;-71
2022/10/25 10:34:57;;;;;;;19.58;8.35;;;;;;;;;;5003784;28;20049;-71
2022/10/25 10:37:25;;;;;;;15.85;8.05;;;;;;;;;;5011718;28;20046;-71
2022/10/25 10:39:53;;;;;;;18.08;8.05;;;;;;;;;;5012866;28;20030;-71
2022/10/25 10:42:23;;;;;;;14.40;7.88;;;;;;;;;;5003494;28;20049;-72
2022/10/25 10:45:01;;;;;;;15.50;7.33;;;;;;;;;;5007330;28;20101;-71
2022/10/25 10:47:31;;;;;;;13.50;7.68;;;;;;;;;;5004757;28;20266;-71
2022/10/25 10:49:57;;;;;;;19.33;6.80;;;;;;;;;;5008537;28;20051;-71
2022/10/25 10:52:26;;;;;;;10.57;6.20;;;;;;;;;;5011094;28;20026;-71
2022/10/25 10:54:53;;;;;;;15.82;6.30;;;;;;;;;;5009374;28;20037;-71
2022/10/25 10:57:29;;;;;;;13.57;6.72;;;;;;;;;;5010409;28;20041;-71
2022/10/25 10:59:56;;;;;;;11.60;5.80;;;;;;;;;;5001142;28;20068;-71
2022/10/25 11:02:36;;;;;;;16.17;6.47;;;;;;;;;;5014154;28;20033;-71
2022/10/25 11:05:16;;;;;;;14.15;6.68;;;;;;;;;;5019818;28;20667;-71
2022/10/25 11:07:43;;;;;;;10.80;6.18;;;;;;;;;;5018771;28;20034;-71
2022/10/25 11:10:15;;;;;;;15.60;7.10;;;;;;;;;;5020682;28;20478;-72
2022/10/25 11:12:41;;;;;;;13.45;6.47;;;;;;;;;;5019767;28;20503;-72
2022/10/25 11:15:10;;;;;;;11.75;6.00;;;;;;;;;;5020134;28;20500;-72
2022/10/25 11:17:39;;;;;;;15.38;7.97;;;;;;;;;;5016026;28;20041;-71
2022/10/25 11:20:05;;;;;;;22.05;7.45;;;;;;;;;;5011187;28;20025;-72
2022/10/25 11:22:40;;;;;;;12.07;6.05;;;;;;;;;;5011072;28;20029;-71
2022/10/25 11:25:09;;;;;;;8.88;5.82;;;;;;;;;;5010349;28;20037;-72
2022/10/25 11:27:47;;;;;;;14.13;6.10;;;;;;;;;;5011065;28;20029;-71
2022/10/25 11:30:15;;;;;;;16.45;6.45;;;;;;;;;;5009587;28;20025;-72
2022/10/25 11:32:48;;;;;;;16.40;6.78;;;;;;;;;;5012216;28;20021;-71
2022/10/25 11:35:17;;;;;;;26.45;6.57;;;;;;;;;;5011737;28;20579;-71
2022/10/25 11:38:04;;;;;;;11.55;6.93;;;;;;;;;;5006071;28;20044;-71
2022/10/25 11:40:35;;;;;;;11.32;6.18;;;;;;;;;;5016486;28;20103;-71
2022/10/25 11:43:01;;;;;;;16.90;6.72;;;;;;;;;;5010081;28;20033;-71
2022/10/25 11:45:39;;;;;;;17.75;6.95;;;;;;;;;;5009135;28;20033;-71
2022/10/25 11:48:06;;;;;;;14.43;6.03;;;;;;;;;;5015854;28;20029;-71
2022/10/25 11:50:42;;;;;;;17.73;6.90;;;;;;;;;;5017207;28;20025;-71
2022/10/25 11:53:15;;;;;;;16.67;6.72;;;;;;;;;;5011946;28;20041;-71
2022/10/25 11:55:41;;;;;;;18.85;6.88;;;;;;;;;;5013581;28;20022;-71
2022/10/25 11:58:26;;;;;;;15.93;6.45;;;;;;;;;;5015756;28;20036;-71
2022/10/25 12:00:55;;;;;;;15.45;6.78;;;;;;;;;;5011464;28;20056;-73
2022/10/25 12:03:21;;;;;;;10.32;6.43;;;;;;;;;;5022381;28;20026;-71
2022/10/25 12:06:11;;;;;;;17.17;7.07;;;;;;;;;;5023145;28;20650;-71
2022/10/25 12:09:03;;;;;;;19.92;6.55;;;;;;;;;;5013158;28;20479;-72
2022/10/25 12:11:50;;;;;;;18.08;7.15;;;;;;;;;;5020135;28;20088;-72
2022/10/25 12:14:19;;;;;;;16.35;6.85;;;;;;;;;;5021624;28;20040;-72
2022/10/25 12:16:45;;;;;;;14.30;7.03;;;;;;;;;;5020469;28;20049;-71
2022/10/25 12:19:14;;;;;;;15.05;6.88;;;;;;;;;;5021605;28;20456;-71
2022/10/25 12:21:54;;;;;;;14.18;6.80;;;;;;;;;;5021508;28;20057;-72
2022/10/25 12:24:24;;;;;;;12.65;6.57;;;;;;;;;;5020178;28;20025;-72
2022/10/25 12:26:52;;;;;;;12.98;6.00;;;;;;;;;;5023361;28;20497;-72
2022/10/25 12:29:24;;;;;;;14.70;6.80;;;;;;;;;;5023341;28;20048;-71
2022/10/25 12:31:50;;;;;;;;;;;;;;;;;;5023451;28;20209;-71
2022/10/25 12:34:21;;;;;;;14.38;6.40;;;;;;;;;;5021767;28;20898;-72
2022/10/25 12:36:47;;;;;;;;;;;;;;;;;;5022800;28;20547;-71
2022/10/25 12:39:18;;;;;;;19.27;6.93;;;;;;;;;;5023074;28;19948;-71
2022/10/25 12:41:47;;;;;;;13.23;6.38;;;;;;;;;;5022501;28;20036;-71
2022/10/25 12:44:28;;;;;;;14.73;6.22;;;;;;;;;;5022673;28;20029;-72
2022/10/25 12:47:13;;;;;;;11.48;5.88;;;;;;;;;;5021034;28;20171;-71
2022/10/25 12:49:47;;;;;;;11.73;5.50;;;;;;;;;;5022459;28;20026;-72
2022/10/25 12:52:25;;;;;;;18.70;5.53;;;;;;;;;;5022580;28;20029;-72
2022/10/25 12:54:52;;;;;;;14.75;5.80;;;;;;;;;;5023097;28;20030;-72
2022/10/25 12:57:21;;;;;;;10.68;5.70;;;;;;;;;;5021128;28;20059;-72
2022/10/25 12:59:53;;;;;;;12.68;5.55;;;;;;;;;;5016043;28;20025;-72
2022/10/25 13:02:19;;;;;;;8.32;5.40;;;;;;;;;;5021809;28;20041;-71
2022/10/25 13:04:45;;;;;;;7.00;4.90;;;;;;;;;;5022589;28;20780;-71
2022/10/25 13:07:12;;;;;;;9.18;5.15;;;;;;;;;;5020875;28;20080;-71
2022/10/25 13:09:39;;;;;;;10.85;5.05;;;;;;;;;;5022558;28;20030;-71
2022/10/25 13:12:06;;;;;;;12.10;5.97;;;;;;;;;;5022874;28;20029;-71
2022/10/25 13:14:34;;;;;;;13.23;5.65;;;;;;;;;;5022110;28;20043;-72
2022/10/25 13:17:16;;;;;;;13.75;6.13;;;;;;;;;;5022320;28;20040;-71
2022/10/25 13:20:15;;;;;;;12.25;5.05;;;;;;;;;;5020689;28;20037;-71
2022/10/25 13:22:41;;;;;;;10.57;5.20;;;;;;;;;;5017572;28;20041;-72
2022/10/25 13:25:07;;;;;;;12.45;5.95;;;;;;;;;;5022391;28;20029;-72
2022/10/25 13:27:35;;;;;;;11.00;5.22;;;;;;;;;;5020426;28;20381;-71
2022/10/25 13:30:16;;;;;;;13.68;5.13;;;;;;;;;;5021980;28;20029;-71
2022/10/25 13:32:43;;;;;;;10.77;5.70;;;;;;;;;;5022117;28;20068;-71
2022/10/25 13:35:22;;;;;;;13.18;5.90;;;;;;;;;;5022128;28;20110;-72
2022/10/25 13:38:08;;;;;;;17.63;6.47;;;;;;;;;;5021834;28;20034;-71
2022/10/25 13:40:37;;;;;;;15.98;6.60;;;;;;;;;;5019196;28;20549;-72
2022/10/25 13:43:16;;;;;;;11.75;6.60;;;;;;;;;;5021902;28;20033;-71
2022/10/25 13:45:43;;;;;;;9.63;6.38;;;;;;;;;;5021594;28;20017;-71
2022/10/25 13:48:30;;;;;;;9.98;7.05;;;;;;;;;;5021665;28;20022;-71
2022/10/25 13:50:59;;;;;;;15.90;7.35;;;;;;;;;;5018064;28;20022;-71
2022/10/25 13:53:36;;;;;;;15.80;7.53;;;;;;;;;;5021801;28;20060;-72
2022/10/25 13:56:05;;;;;;;14.27;6.72;;;;;;;;;;5019534;28;20493;-72
2022/10/25 13:58:31;;;;;;;14.88;6.60;;;;;;;;;;5019934;28;20502;-72
2022/10/25 14:01:17;;;;;;;13.32;6.43;;;;;;;;;;5013986;28;20028;-71
2022/10/25 14:03:47;;;;;;;10.48;5.18;;;;;;;;;;5015579;28;20470;-71
2022/10/25 14:06:25;;;;;;;9.05;5.40;;;;;;;;;;5021336;28;20034;-72
2022/10/25 14:08:54;;;;;;;11.80;5.50;;;;;;;;;;5021691;28;20034;-72
2022/10/25 14:11:23;;;;;;;13.45;6.45;;;;;;;;;;5019583;28;20393;-72
2022/10/25 14:13:58;;;;;;;12.32;5.57;;;;;;;;;;5021350;28;20091;-72
2022/10/25 14:16:35;;;;;;;8.18;4.85;;;;;;;;;;5019907;28;20060;-72
2022/10/25 14:19:15;;;;;;;16.23;6.18;;;;;;;;;;5021278;28;20032;-72
2022/10/25 14:21:46;;;;;;;14.15;5.53;;;;;;;;;;5018737;28;20083;-72
2022/10/25 14:24:14;;;;;;;14.52;6.20;;;;;;;;;;5016494;28;20035;-75
2022/10/25 14:26:49;;;;;;;11.27;5.93;;;;;;;;;;5009146;28;20101;-73
2022/10/25 14:29:18;;;;;;;10.73;5.13;;;;;;;;;;5017115;28;20501;-73
2022/10/25 14:31:45;;;;;;;12.98;5.60;;;;;;;;;;5012958;28;20207;-72
2022/10/25 14:34:17;;;;;;;12.77;5.35;;;;;;;;;;5016044;28;20029;-72
2022/10/25 14:36:47;;;;;;;9.52;5.00;;;;;;;;;;5011485;28;20604;-70
2022/10/25 14:39:23;;;;;;;12.75;5.07;;;;;;;;;;5009303;28;20030;-72
2022/10/25 14:41:53;;;;;;;9.85;5.75;;;;;;;;;;4991652;28;20045;-71
2022/10/25 14:44:22;;;;;;;10.13;5.53;;;;;;;;;;5009647;28;20033;-71
2022/10/25 14:46:49;;;;;;;14.15;5.82;;;;;;;;;;5014824;28;20026;-71
2022/10/25 14:49:15;;;;;;;12.98;6.20;;;;;;;;;;5002672;28;20112;-72
2022/10/25 14:51:42;;;;;;;17.38;5.47;;;;;;;;;;5017846;28;20084;-71